createdAt,value
2016-09-01T00:00:14.566Z,0
2016-09-01T00:01:13.026Z,0
2016-09-01T00:02:12.990Z,0
2016-09-01T00:03:12.970Z,0
2016-09-01T00:04:12.968Z,0
2016-09-01T00:05:12.973Z,0
2016-09-01T00:06:13.672Z,0
2016-09-01T00:07:11.628Z,0
2016-09-01T00:08:13.633Z,0
2016-09-01T00:09:12.909Z,0
2016-09-01T00:10:12.901Z,0
2016-09-01T00:11:12.892Z,0
2016-09-01T00:12:13.619Z,0
2016-09-01T00:13:13.638Z,0
2016-09-01T00:14:13.563Z,0
2016-09-01T00:15:13.571Z,0
2016-09-01T00:16:12.831Z,0
2016-09-01T00:17:12.180Z,0
2016-09-01T00:18:13.517Z,0
2016-09-01T00:19:12.779Z,0
2016-09-01T00:20:13.490Z,0
2016-09-01T00:21:13.479Z,0
2016-09-01T00:22:13.461Z,0
2016-09-01T00:23:12.724Z,0
2016-09-01T00:24:11.285Z,0
2016-09-01T00:25:13.412Z,0
2016-09-01T00:26:13.412Z,0
2016-09-01T00:27:12.678Z,0
2016-09-01T00:28:12.687Z,0
2016-09-01T00:29:12.666Z,0
2016-09-01T00:30:13.140Z,0
2016-09-01T00:31:13.349Z,0
2016-09-01T00:32:13.341Z,0
2016-09-01T00:33:11.909Z,0
2016-09-01T00:34:11.892Z,0
2016-09-01T00:35:13.539Z,0
2016-09-01T00:36:13.308Z,0
2016-09-01T00:37:12.631Z,0
2016-09-01T00:38:13.272Z,0
2016-09-01T00:39:13.258Z,0
2016-09-01T00:40:11.098Z,0
2016-09-01T00:41:13.292Z,0
2016-09-01T00:42:13.211Z,0
2016-09-01T00:43:12.506Z,0
2016-09-01T00:44:12.502Z,0
2016-09-01T00:45:12.475Z,0
2016-09-01T00:46:12.469Z,0
2016-09-01T00:47:11.002Z,0
2016-09-01T00:48:12.429Z,0
2016-09-01T00:49:12.421Z,0
2016-09-01T00:50:13.144Z,0
2016-09-01T00:51:13.100Z,0
2016-09-01T00:52:12.401Z,0
2016-09-01T00:53:13.071Z,0
2016-09-01T00:54:12.372Z,0
2016-09-01T00:55:13.052Z,0
2016-09-01T00:56:12.330Z,0
2016-09-01T00:57:12.331Z,0
2016-09-01T00:58:13.071Z,0
2016-09-01T00:59:13.001Z,0
2016-09-01T01:00:12.471Z,0
2016-09-01T01:01:12.262Z,0
2016-09-01T01:02:12.250Z,0
2016-09-01T01:03:12.955Z,0
2016-09-01T01:04:12.221Z,0
2016-09-01T01:05:13.449Z,0
2016-09-01T01:06:12.197Z,0
2016-09-01T01:07:12.919Z,0
2016-09-01T01:08:12.202Z,0
2016-09-01T01:09:12.173Z,0
2016-09-01T01:10:12.258Z,0
2016-09-01T01:11:12.132Z,0
2016-09-01T01:12:12.114Z,0
2016-09-01T01:13:11.406Z,0
2016-09-01T01:14:12.106Z,0
2016-09-01T01:15:11.518Z,0
2016-09-01T01:16:12.081Z,0
2016-09-01T01:17:12.800Z,0
2016-09-01T01:18:12.770Z,0
2016-09-01T01:19:12.036Z,0
2016-09-01T01:20:12.779Z,0
2016-09-01T01:21:11.313Z,0
2016-09-01T01:22:12.022Z,0
2016-09-01T01:23:12.688Z,0
2016-09-01T01:24:11.266Z,0
2016-09-01T01:25:12.769Z,0
2016-09-01T01:26:11.942Z,0
2016-09-01T01:27:12.659Z,0
2016-09-01T01:28:12.633Z,0
2016-09-01T01:29:11.962Z,0
2016-09-01T01:30:11.912Z,0
2016-09-01T01:31:12.591Z,0
2016-09-01T01:32:11.891Z,0
2016-09-01T01:33:12.583Z,0
2016-09-01T01:34:12.564Z,0
2016-09-01T01:35:11.857Z,0
2016-09-01T01:36:11.840Z,0
2016-09-01T01:37:12.531Z,0
2016-09-01T01:38:11.801Z,0
2016-09-01T01:39:12.582Z,0
2016-09-01T01:40:12.833Z,0
2016-09-01T01:41:11.771Z,0
2016-09-01T01:42:11.750Z,0
2016-09-01T01:43:12.459Z,0
2016-09-01T01:44:11.019Z,0
2016-09-01T01:45:12.459Z,0
2016-09-01T01:46:12.422Z,0
2016-09-01T01:47:11.708Z,0
2016-09-01T01:48:12.441Z,0
2016-09-01T01:49:11.742Z,0
2016-09-01T01:50:11.276Z,0
2016-09-01T01:51:11.688Z,0
2016-09-01T01:52:12.353Z,0
2016-09-01T01:53:12.411Z,0
2016-09-01T01:54:12.311Z,0
2016-09-01T01:55:12.328Z,0
2016-09-01T01:56:12.285Z,0
2016-09-01T01:57:12.311Z,0
2016-09-01T01:58:12.261Z,0
2016-09-01T01:59:11.592Z,0
2016-09-01T02:00:12.891Z,0
2016-09-01T02:01:11.588Z,0
2016-09-01T02:02:12.232Z,0
2016-09-01T02:03:11.488Z,0
2016-09-01T02:04:12.171Z,0
2016-09-01T02:05:12.253Z,0
2016-09-01T02:06:11.450Z,0
2016-09-01T02:07:11.462Z,0
2016-09-01T02:08:11.422Z,0
2016-09-01T02:09:11.418Z,0
2016-09-01T02:10:12.241Z,0
2016-09-01T02:11:12.142Z,0
2016-09-01T02:12:12.079Z,0
2016-09-01T02:13:12.091Z,0
2016-09-01T02:14:11.323Z,0
2016-09-01T02:15:10.630Z,0
2016-09-01T02:16:12.049Z,0
2016-09-01T02:17:12.020Z,0
2016-09-01T02:18:12.009Z,0
2016-09-01T02:19:12.017Z,0
2016-09-01T02:20:12.543Z,0
2016-09-01T02:21:11.501Z,0
2016-09-01T02:22:11.938Z,0
2016-09-01T02:23:11.939Z,0
2016-09-01T02:24:11.972Z,0
2016-09-01T02:25:11.203Z,0
2016-09-01T02:26:11.251Z,0
2016-09-01T02:27:11.897Z,0
2016-09-01T02:28:11.889Z,0
2016-09-01T02:29:11.910Z,0
2016-09-01T02:30:11.252Z,0
2016-09-01T02:31:11.121Z,0
2016-09-01T02:32:10.398Z,0
2016-09-01T02:33:11.101Z,0
2016-09-01T02:34:11.799Z,0
2016-09-01T02:35:11.078Z,0
2016-09-01T02:36:11.074Z,0
2016-09-01T02:37:11.831Z,0
2016-09-01T02:38:11.038Z,0
2016-09-01T02:39:11.728Z,0
2016-09-01T02:40:11.060Z,0
2016-09-01T02:41:10.273Z,0
2016-09-01T02:42:11.697Z,0
2016-09-01T02:43:10.975Z,0
2016-09-01T02:44:11.681Z,0
2016-09-01T02:45:12.350Z,0
2016-09-01T02:46:10.219Z,0
2016-09-01T02:47:10.921Z,0
2016-09-01T02:48:10.907Z,0
2016-09-01T02:49:11.590Z,0
2016-09-01T02:50:10.901Z,0
2016-09-01T02:51:11.584Z,0
2016-09-01T02:52:11.591Z,0
2016-09-01T02:53:11.571Z,0
2016-09-01T02:54:10.863Z,0
2016-09-01T02:55:11.564Z,0
2016-09-01T02:56:10.785Z,0
2016-09-01T02:57:11.511Z,0
2016-09-01T02:58:11.515Z,0
2016-09-01T02:59:10.762Z,0
2016-09-01T03:00:10.751Z,0
2016-09-01T03:01:10.022Z,0
2016-09-01T03:02:11.510Z,0
2016-09-01T03:03:10.731Z,0
2016-09-01T03:04:11.410Z,0
2016-09-01T03:05:11.410Z,0
2016-09-01T03:06:11.388Z,0
2016-09-01T03:07:10.676Z,0
2016-09-01T03:08:10.650Z,0
2016-09-01T03:09:11.340Z,0
2016-09-01T03:10:10.698Z,0
2016-09-01T03:11:10.675Z,0
2016-09-01T03:12:10.750Z,0
2016-09-01T03:13:10.576Z,0
2016-09-01T03:14:11.321Z,0
2016-09-01T03:15:10.546Z,0
2016-09-01T03:16:10.586Z,0
2016-09-01T03:17:10.515Z,0
2016-09-01T03:18:11.259Z,0
2016-09-01T03:19:10.518Z,0
2016-09-01T03:20:11.309Z,0
2016-09-01T03:21:09.117Z,0
2016-09-01T03:22:11.248Z,0
2016-09-01T03:23:11.180Z,0
2016-09-01T03:24:10.501Z,0
2016-09-01T03:25:10.427Z,0
2016-09-01T03:26:11.151Z,0
2016-09-01T03:27:09.717Z,0
2016-09-01T03:28:10.381Z,0
2016-09-01T03:29:11.100Z,0
2016-09-01T03:30:11.390Z,0
2016-09-01T03:31:11.071Z,0
2016-09-01T03:32:09.631Z,0
2016-09-01T03:33:10.323Z,0
2016-09-01T03:34:10.310Z,0
2016-09-01T03:35:09.651Z,0
2016-09-01T03:36:10.995Z,0
2016-09-01T03:37:10.351Z,0
2016-09-01T03:38:10.320Z,0
2016-09-01T03:39:10.958Z,0
2016-09-01T03:40:10.246Z,0
2016-09-01T03:41:10.925Z,0
2016-09-01T03:42:10.186Z,0
2016-09-01T03:43:10.921Z,0
2016-09-01T03:44:10.312Z,0
2016-09-01T03:45:10.144Z,0
2016-09-01T03:46:09.519Z,0
2016-09-01T03:47:10.840Z,0
2016-09-01T03:48:10.184Z,0
2016-09-01T03:49:10.826Z,0
2016-09-01T03:50:10.852Z,0
2016-09-01T03:51:10.809Z,0
2016-09-01T03:52:10.844Z,0
2016-09-01T03:53:10.061Z,0
2016-09-01T03:54:10.806Z,0
2016-09-01T03:55:10.211Z,0
2016-09-01T03:56:10.029Z,0
2016-09-01T03:57:10.047Z,0
2016-09-01T03:58:10.703Z,0
2016-09-01T03:59:10.689Z,0
2016-09-01T04:00:10.597Z,0
2016-09-01T04:01:10.678Z,0
2016-09-01T04:02:09.221Z,0
2016-09-01T04:03:10.640Z,0
2016-09-01T04:04:09.279Z,0
2016-09-01T04:05:10.599Z,0
2016-09-01T04:06:09.952Z,0
2016-09-01T04:07:09.942Z,0
2016-09-01T04:08:08.419Z,0
2016-09-01T04:09:10.561Z,0
2016-09-01T04:10:10.568Z,0
2016-09-01T04:11:10.529Z,0
2016-09-01T04:12:09.830Z,0
2016-09-01T04:13:09.794Z,0
2016-09-01T04:14:10.509Z,0
2016-09-01T04:15:09.815Z,0
2016-09-01T04:16:10.470Z,0
2016-09-01T04:17:10.451Z,0
2016-09-01T04:18:09.723Z,0
2016-09-01T04:19:10.480Z,0
2016-09-01T04:20:10.427Z,0
2016-09-01T04:21:10.539Z,0
2016-09-01T04:22:09.692Z,0
2016-09-01T04:23:09.722Z,0
2016-09-01T04:24:08.926Z,0
2016-09-01T04:25:10.092Z,0
2016-09-01T04:26:08.896Z,0
2016-09-01T04:27:10.309Z,0
2016-09-01T04:28:09.592Z,0
2016-09-01T04:29:08.923Z,0
2016-09-01T04:30:10.267Z,0
2016-09-01T04:31:10.356Z,0
2016-09-01T04:32:10.238Z,0
2016-09-01T04:33:10.301Z,0
2016-09-01T04:34:09.524Z,0
2016-09-01T04:35:10.287Z,0
2016-09-01T04:36:09.499Z,0
2016-09-01T04:37:10.207Z,0
2016-09-01T04:38:09.477Z,0
2016-09-01T04:39:09.481Z,0
2016-09-01T04:40:09.632Z,0
2016-09-01T04:41:10.200Z,0
2016-09-01T04:42:10.130Z,0
2016-09-01T04:43:10.172Z,0
2016-09-01T04:44:10.091Z,0
2016-09-01T04:45:10.099Z,0
2016-09-01T04:46:08.641Z,0
2016-09-01T04:47:10.081Z,0
2016-09-01T04:48:09.327Z,0
2016-09-01T04:49:09.321Z,5
2016-09-01T04:50:09.297Z,5
2016-09-01T04:51:09.275Z,5
2016-09-01T04:52:09.987Z,5
2016-09-01T04:53:09.260Z,5
2016-09-01T04:54:09.248Z,5
2016-09-01T04:55:09.938Z,5
2016-09-01T04:56:09.219Z,5
2016-09-01T04:57:09.971Z,5
2016-09-01T04:58:09.892Z,5
2016-09-01T04:59:09.189Z,10
2016-09-01T05:00:09.045Z,10
2016-09-01T05:01:08.435Z,10
2016-09-01T05:02:09.848Z,10
2016-09-01T05:03:09.124Z,10
2016-09-01T05:04:09.106Z,10
2016-09-01T05:05:08.485Z,10
2016-09-01T05:06:09.084Z,10
2016-09-01T05:07:09.798Z,15
2016-09-01T05:08:09.076Z,15
2016-09-01T05:09:09.777Z,15
2016-09-01T05:10:09.033Z,15
2016-09-01T05:11:09.749Z,15
2016-09-01T05:12:09.001Z,20
2016-09-01T05:13:08.991Z,20
2016-09-01T05:14:09.695Z,20
2016-09-01T05:15:09.082Z,20
2016-09-01T05:16:09.671Z,25
2016-09-01T05:17:07.508Z,25
2016-09-01T05:18:08.921Z,25
2016-09-01T05:19:09.639Z,25
2016-09-01T05:20:09.622Z,25
2016-09-01T05:21:08.878Z,30
2016-09-01T05:22:08.172Z,30
2016-09-01T05:23:08.881Z,30
2016-09-01T05:24:08.871Z,30
2016-09-01T05:25:08.839Z,30
2016-09-01T05:26:09.550Z,35
2016-09-01T05:27:08.796Z,35
2016-09-01T05:28:08.781Z,35
2016-09-01T05:29:09.488Z,35
2016-09-01T05:30:08.051Z,40
2016-09-01T05:31:09.731Z,40
2016-09-01T05:32:08.718Z,40
2016-09-01T05:33:07.984Z,40
2016-09-01T05:34:09.432Z,40
2016-09-01T05:35:08.747Z,45
2016-09-01T05:36:08.749Z,45
2016-09-01T05:37:08.668Z,50
2016-09-01T05:38:09.398Z,50
2016-09-01T05:39:09.361Z,55
2016-09-01T05:40:08.608Z,55
2016-09-01T05:41:07.921Z,55
2016-09-01T05:42:09.330Z,55
2016-09-01T05:43:09.291Z,60
2016-09-01T05:44:07.872Z,60
2016-09-01T05:45:07.918Z,65
2016-09-01T05:46:08.548Z,65
2016-09-01T05:47:09.250Z,70
2016-09-01T05:48:08.531Z,70
2016-09-01T05:49:09.231Z,70
2016-09-01T05:50:08.515Z,75
2016-09-01T05:51:07.121Z,75
2016-09-01T05:52:09.181Z,80
2016-09-01T05:53:08.462Z,85
2016-09-01T05:54:08.501Z,85
2016-09-01T05:55:07.715Z,85
2016-09-01T05:56:09.181Z,85
2016-09-01T05:57:08.465Z,90
2016-09-01T05:58:09.217Z,90
2016-09-01T05:59:08.440Z,95
2016-09-01T06:00:08.066Z,95
2016-09-01T06:01:07.656Z,95
2016-09-01T06:02:06.883Z,90
2016-09-01T06:03:08.322Z,90
2016-09-01T06:04:08.309Z,90
2016-09-01T06:05:09.022Z,95
2016-09-01T06:06:09.019Z,100
2016-09-01T06:07:08.998Z,105
2016-09-01T06:08:07.559Z,105
2016-09-01T06:09:08.247Z,105
2016-09-01T06:10:08.948Z,105
2016-09-01T06:11:09.052Z,115
2016-09-01T06:12:07.479Z,120
2016-09-01T06:13:08.189Z,125
2016-09-01T06:14:08.899Z,125
2016-09-01T06:15:09.051Z,125
2016-09-01T06:16:08.891Z,130
2016-09-01T06:17:08.857Z,125
2016-09-01T06:18:08.832Z,130
2016-09-01T06:19:08.832Z,130
2016-09-01T06:20:08.831Z,130
2016-09-01T06:21:08.090Z,135
2016-09-01T06:22:06.697Z,135
2016-09-01T06:23:08.070Z,135
2016-09-01T06:24:08.799Z,140
2016-09-01T06:25:07.324Z,140
2016-09-01T06:26:08.740Z,145
2016-09-01T06:27:08.019Z,145
2016-09-01T06:28:08.012Z,145
2016-09-01T06:29:08.705Z,150
2016-09-01T06:30:08.679Z,150
2016-09-01T06:31:08.670Z,150
2016-09-01T06:32:07.945Z,150
2016-09-01T06:33:08.651Z,150
2016-09-01T06:34:08.662Z,155
2016-09-01T06:35:07.912Z,155
2016-09-01T06:36:07.899Z,155
2016-09-01T06:37:08.603Z,150
2016-09-01T06:38:07.171Z,145
2016-09-01T06:39:07.143Z,135
2016-09-01T06:40:08.812Z,130
2016-09-01T06:41:08.558Z,125
2016-09-01T06:42:08.587Z,125
2016-09-01T06:43:07.888Z,130
2016-09-01T06:44:08.528Z,150
2016-09-01T06:45:07.711Z,160
2016-09-01T06:46:06.331Z,165
2016-09-01T06:47:07.752Z,170
2016-09-01T06:48:07.038Z,170
2016-09-01T06:49:07.753Z,175
2016-09-01T06:50:07.022Z,175
2016-09-01T06:51:07.736Z,180
2016-09-01T06:52:07.748Z,175
2016-09-01T06:53:07.711Z,200
2016-09-01T06:54:07.692Z,215
2016-09-01T06:55:08.582Z,420
2016-09-01T06:56:07.750Z,735
2016-09-01T06:57:06.989Z,845
2016-09-01T06:58:07.621Z,840
2016-09-01T06:59:07.010Z,545
2016-09-01T07:00:07.633Z,405
2016-09-01T07:01:08.328Z,690
2016-09-01T07:02:08.353Z,790
2016-09-01T07:03:07.593Z,710
2016-09-01T07:04:07.604Z,785
2016-09-01T07:05:07.609Z,905
2016-09-01T07:06:07.564Z,1050
2016-09-01T07:07:08.290Z,1110
2016-09-01T07:08:07.553Z,1105
2016-09-01T07:09:06.878Z,1035
2016-09-01T07:10:07.520Z,805
2016-09-01T07:11:08.249Z,615
2016-09-01T07:12:07.530Z,305
2016-09-01T07:13:06.812Z,270
2016-09-01T07:14:06.078Z,255
2016-09-01T07:15:06.840Z,255
2016-09-01T07:16:08.201Z,260
2016-09-01T07:17:07.496Z,255
2016-09-01T07:18:06.759Z,250
2016-09-01T07:19:07.463Z,240
2016-09-01T07:20:08.181Z,240
2016-09-01T07:21:06.733Z,240
2016-09-01T07:22:08.168Z,230
2016-09-01T07:23:08.213Z,235
2016-09-01T07:24:07.651Z,225
2016-09-01T07:25:08.200Z,220
2016-09-01T07:26:06.690Z,215
2016-09-01T07:27:06.697Z,225
2016-09-01T07:28:07.394Z,225
2016-09-01T07:29:06.679Z,235
2016-09-01T07:30:08.129Z,240
2016-09-01T07:31:05.937Z,240
2016-09-01T07:32:08.079Z,235
2016-09-01T07:33:07.350Z,235
2016-09-01T07:34:06.641Z,230
2016-09-01T07:35:08.511Z,290
2016-09-01T07:36:07.369Z,445
2016-09-01T07:37:06.601Z,620
2016-09-01T07:38:07.338Z,775
2016-09-01T07:39:07.300Z,950
2016-09-01T07:40:08.089Z,1005
2016-09-01T07:41:08.009Z,1115
2016-09-01T07:42:07.297Z,1170
2016-09-01T07:43:07.299Z,1230
2016-09-01T07:44:07.983Z,1245
2016-09-01T07:45:07.263Z,1235
2016-09-01T07:46:06.558Z,1225
2016-09-01T07:47:07.252Z,1290
2016-09-01T07:48:08.000Z,1250
2016-09-01T07:49:06.611Z,1260
2016-09-01T07:50:06.529Z,1175
2016-09-01T07:51:07.228Z,1120
2016-09-01T07:52:07.323Z,1075
2016-09-01T07:53:06.521Z,1010
2016-09-01T07:54:07.937Z,860
2016-09-01T07:55:06.511Z,950
2016-09-01T07:56:06.518Z,1125
2016-09-01T07:57:05.780Z,1015
2016-09-01T07:58:07.944Z,1020
2016-09-01T07:59:07.281Z,1135
2016-09-01T08:00:06.495Z,1245
2016-09-01T08:01:07.905Z,1270
2016-09-01T08:02:08.008Z,1220
2016-09-01T08:03:07.320Z,1180
2016-09-01T08:04:05.048Z,1360
2016-09-01T08:05:05.916Z,1395
2016-09-01T08:06:07.195Z,1430
2016-09-01T08:07:07.900Z,1390
2016-09-01T08:08:07.178Z,1270
2016-09-01T08:09:07.204Z,970
2016-09-01T08:10:09.901Z,1025
2016-09-01T08:11:05.838Z,1030
2016-09-01T08:12:07.178Z,1075
2016-09-01T08:13:07.179Z,1075
2016-09-01T08:14:06.444Z,1305
2016-09-01T08:15:07.890Z,1330
2016-09-01T08:16:07.170Z,1395
2016-09-01T08:17:09.118Z,1270
2016-09-01T08:18:06.529Z,1285
2016-09-01T08:19:07.975Z,1375
2016-09-01T08:20:07.889Z,1425
2016-09-01T08:21:07.886Z,1415
2016-09-01T08:22:05.746Z,1465
2016-09-01T08:23:07.936Z,1405
2016-09-01T08:24:07.857Z,1370
2016-09-01T08:25:07.159Z,1315
2016-09-01T08:26:07.178Z,1265
2016-09-01T08:27:06.438Z,1325
2016-09-01T08:28:06.441Z,1330
2016-09-01T08:29:07.160Z,755
2016-09-01T08:30:07.577Z,1085
2016-09-01T08:31:06.457Z,1415
2016-09-01T08:32:06.519Z,1360
2016-09-01T08:33:06.460Z,1430
2016-09-01T08:34:07.207Z,1305
2016-09-01T08:35:07.890Z,1300
2016-09-01T08:36:06.449Z,1325
2016-09-01T08:37:05.741Z,1240
2016-09-01T08:38:07.210Z,1050
2016-09-01T08:39:07.880Z,1245
2016-09-01T08:40:06.523Z,1235
2016-09-01T08:41:07.159Z,1045
2016-09-01T08:42:06.460Z,930
2016-09-01T08:43:07.168Z,820
2016-09-01T08:44:06.520Z,960
2016-09-01T08:45:07.896Z,1240
2016-09-01T08:46:06.446Z,1130
2016-09-01T08:47:07.178Z,865
2016-09-01T08:48:07.186Z,945
2016-09-01T08:49:06.472Z,1015
2016-09-01T08:50:06.920Z,1285
2016-09-01T08:51:07.184Z,1315
2016-09-01T08:52:06.476Z,1325
2016-09-01T08:53:07.887Z,1425
2016-09-01T08:54:07.178Z,1400
2016-09-01T08:55:07.205Z,1390
2016-09-01T08:56:05.738Z,1360
2016-09-01T08:57:07.165Z,1345
2016-09-01T08:58:06.436Z,1295
2016-09-01T08:59:07.887Z,1125
2016-09-01T09:00:05.784Z,1255
2016-09-01T09:01:06.518Z,1305
2016-09-01T09:02:05.851Z,1210
2016-09-01T09:03:07.227Z,1180
2016-09-01T09:04:07.154Z,1100
2016-09-01T09:05:07.229Z,1135
2016-09-01T09:06:07.167Z,1220
2016-09-01T09:07:07.189Z,1250
2016-09-01T09:08:07.238Z,1175
2016-09-01T09:09:06.551Z,1280
2016-09-01T09:10:06.484Z,1300
2016-09-01T09:11:07.215Z,1310
2016-09-01T09:12:05.746Z,1400
2016-09-01T09:13:07.168Z,1385
2016-09-01T09:14:07.887Z,1365
2016-09-01T09:15:05.816Z,1470
2016-09-01T09:16:06.486Z,1455
2016-09-01T09:17:07.916Z,1280
2016-09-01T09:18:08.341Z,1275
2016-09-01T09:19:07.169Z,1425
2016-09-01T09:20:07.167Z,1330
2016-09-01T09:21:07.922Z,1355
2016-09-01T09:22:07.890Z,1525
2016-09-01T09:23:07.239Z,1315
2016-09-01T09:24:06.617Z,1270
2016-09-01T09:25:06.540Z,1355
2016-09-01T09:26:06.496Z,1410
2016-09-01T09:27:07.916Z,1275
2016-09-01T09:28:06.475Z,1245
2016-09-01T09:29:06.486Z,1320
2016-09-01T09:30:08.095Z,1335
2016-09-01T09:31:07.186Z,1325
2016-09-01T09:32:07.191Z,1300
2016-09-01T09:33:06.492Z,1315
2016-09-01T09:34:06.729Z,1350
2016-09-01T09:35:07.356Z,1310
2016-09-01T09:36:06.549Z,1180
2016-09-01T09:37:07.197Z,1320
2016-09-01T09:38:07.207Z,1270
2016-09-01T09:39:07.919Z,1230
2016-09-01T09:40:05.782Z,1310
2016-09-01T09:41:07.187Z,1195
2016-09-01T09:42:06.499Z,1160
2016-09-01T09:43:07.940Z,1210
2016-09-01T09:44:07.520Z,1210
2016-09-01T09:45:06.561Z,1255
2016-09-01T09:46:07.199Z,1220
2016-09-01T09:47:06.498Z,1220
2016-09-01T09:48:07.930Z,1125
2016-09-01T09:49:07.934Z,950
2016-09-01T09:50:07.476Z,1150
2016-09-01T09:51:07.437Z,1230
2016-09-01T09:52:07.241Z,1130
2016-09-01T09:53:07.339Z,1100
2016-09-01T09:54:07.970Z,1130
2016-09-01T09:55:07.280Z,1120
2016-09-01T09:56:07.202Z,1165
2016-09-01T09:57:07.920Z,1125
2016-09-01T09:58:07.988Z,1045
2016-09-01T09:59:08.028Z,1140
2016-09-01T10:00:07.218Z,1180
2016-09-01T10:01:08.381Z,1185
2016-09-01T10:02:07.200Z,1055
2016-09-01T10:03:06.498Z,1075
2016-09-01T10:04:07.216Z,1045
2016-09-01T10:05:07.234Z,975
2016-09-01T10:06:07.930Z,1045
2016-09-01T10:07:06.500Z,1025
2016-09-01T10:08:07.938Z,1085
2016-09-01T10:09:07.968Z,960
2016-09-01T10:10:05.887Z,1010
2016-09-01T10:11:07.906Z,1025
2016-09-01T10:12:07.930Z,940
2016-09-01T10:13:06.678Z,910
2016-09-01T10:14:07.938Z,695
2016-09-01T10:15:07.583Z,425
2016-09-01T10:16:07.218Z,380
2016-09-01T10:17:05.776Z,370
2016-09-01T10:18:05.810Z,365
2016-09-01T10:19:07.172Z,370
2016-09-01T10:20:07.899Z,365
2016-09-01T10:21:07.900Z,375
2016-09-01T10:22:06.470Z,375
2016-09-01T10:23:07.305Z,380
2016-09-01T10:24:06.456Z,380
2016-09-01T10:25:07.431Z,365
2016-09-01T10:26:06.460Z,390
2016-09-01T10:27:07.168Z,400
2016-09-01T10:28:07.177Z,375
2016-09-01T10:29:07.870Z,360
2016-09-01T10:30:06.441Z,335
2016-09-01T10:31:07.168Z,360
2016-09-01T10:32:05.707Z,370
2016-09-01T10:33:07.167Z,375
2016-09-01T10:34:07.146Z,365
2016-09-01T10:35:07.869Z,375
2016-09-01T10:36:07.230Z,385
2016-09-01T10:37:06.440Z,385
2016-09-01T10:38:07.123Z,385
2016-09-01T10:39:07.841Z,385
2016-09-01T10:40:06.410Z,375
2016-09-01T10:41:07.120Z,375
2016-09-01T10:42:07.121Z,355
2016-09-01T10:43:07.184Z,380
2016-09-01T10:44:06.404Z,380
2016-09-01T10:45:07.820Z,345
2016-09-01T10:46:07.100Z,295
2016-09-01T10:47:07.817Z,285
2016-09-01T10:48:07.098Z,275
2016-09-01T10:49:07.871Z,260
2016-09-01T10:50:08.241Z,275
2016-09-01T10:51:07.849Z,350
2016-09-01T10:52:06.371Z,375
2016-09-01T10:53:07.090Z,400
2016-09-01T10:54:07.792Z,395
2016-09-01T10:55:07.288Z,335
2016-09-01T10:56:07.061Z,410
2016-09-01T10:57:06.357Z,295
2016-09-01T10:58:07.806Z,295
2016-09-01T10:59:07.772Z,275
2016-09-01T11:00:07.062Z,270
2016-09-01T11:01:06.324Z,245
2016-09-01T11:02:07.055Z,260
2016-09-01T11:03:06.336Z,325
2016-09-01T11:04:06.327Z,305
2016-09-01T11:05:07.029Z,310
2016-09-01T11:06:05.599Z,330
2016-09-01T11:07:07.748Z,350
2016-09-01T11:08:05.593Z,345
2016-09-01T11:09:06.319Z,275
2016-09-01T11:10:07.717Z,330
2016-09-01T11:11:06.308Z,375
2016-09-01T11:12:06.999Z,310
2016-09-01T11:13:07.727Z,370
2016-09-01T11:14:07.003Z,355
2016-09-01T11:15:06.267Z,360
2016-09-01T11:16:05.554Z,370
2016-09-01T11:17:06.465Z,390
2016-09-01T11:18:06.262Z,395
2016-09-01T11:19:07.688Z,380
2016-09-01T11:20:08.846Z,375
2016-09-01T11:21:06.243Z,370
2016-09-01T11:22:07.141Z,365
2016-09-01T11:23:06.264Z,370
2016-09-01T11:24:07.702Z,370
2016-09-01T11:25:05.518Z,355
2016-09-01T11:26:07.700Z,335
2016-09-01T11:27:06.234Z,360
2016-09-01T11:28:06.928Z,355
2016-09-01T11:29:06.200Z,350
2016-09-01T11:30:05.519Z,355
2016-09-01T11:31:06.919Z,355
2016-09-01T11:32:06.980Z,340
2016-09-01T11:33:07.631Z,335
2016-09-01T11:34:06.921Z,200
2016-09-01T11:35:06.200Z,230
2016-09-01T11:36:06.188Z,220
2016-09-01T11:37:06.262Z,315
2016-09-01T11:38:06.888Z,330
2016-09-01T11:39:06.973Z,335
2016-09-01T11:40:06.878Z,350
2016-09-01T11:41:06.953Z,340
2016-09-01T11:42:06.160Z,355
2016-09-01T11:43:07.611Z,360
2016-09-01T11:44:06.863Z,360
2016-09-01T11:45:06.950Z,360
2016-09-01T11:46:06.148Z,365
2016-09-01T11:47:06.262Z,220
2016-09-01T11:48:07.556Z,210
2016-09-01T11:49:06.130Z,220
2016-09-01T11:50:06.127Z,385
2016-09-01T11:51:04.698Z,345
2016-09-01T11:52:06.338Z,240
2016-09-01T11:53:06.104Z,255
2016-09-01T11:54:06.821Z,315
2016-09-01T11:55:06.849Z,200
2016-09-01T11:56:07.536Z,200
2016-09-01T11:57:06.850Z,210
2016-09-01T11:58:06.309Z,200
2016-09-01T11:59:06.799Z,190
2016-09-01T12:00:06.227Z,185
2016-09-01T12:01:07.560Z,180
2016-09-01T12:02:06.080Z,185
2016-09-01T12:03:07.693Z,195
2016-09-01T12:04:05.377Z,200
2016-09-01T12:05:06.781Z,225
2016-09-01T12:06:06.077Z,250
2016-09-01T12:07:07.513Z,250
2016-09-01T12:08:07.647Z,285
2016-09-01T12:09:06.794Z,235
2016-09-01T12:10:06.037Z,215
2016-09-01T12:11:06.727Z,200
2016-09-01T12:12:06.001Z,190
2016-09-01T12:13:06.003Z,180
2016-09-01T12:14:06.737Z,175
2016-09-01T12:15:06.847Z,170
2016-09-01T12:16:06.788Z,175
2016-09-01T12:17:05.587Z,180
2016-09-01T12:18:06.038Z,175
2016-09-01T12:19:06.698Z,185
2016-09-01T12:20:05.266Z,170
2016-09-01T12:21:07.429Z,170
2016-09-01T12:22:05.984Z,160
2016-09-01T12:23:06.790Z,155
2016-09-01T12:24:05.485Z,150
2016-09-01T12:25:05.979Z,145
2016-09-01T12:26:06.656Z,140
2016-09-01T12:27:06.639Z,135
2016-09-01T12:28:06.662Z,140
2016-09-01T12:29:07.359Z,165
2016-09-01T12:30:07.514Z,245
2016-09-01T12:31:05.931Z,195
2016-09-01T12:32:06.917Z,290
2016-09-01T12:33:06.621Z,310
2016-09-01T12:34:05.900Z,245
2016-09-01T12:35:06.007Z,225
2016-09-01T12:36:06.155Z,290
2016-09-01T12:37:07.300Z,250
2016-09-01T12:38:05.871Z,220
2016-09-01T12:39:07.300Z,220
2016-09-01T12:40:06.569Z,215
2016-09-01T12:41:06.561Z,245
2016-09-01T12:42:06.607Z,330
2016-09-01T12:43:07.261Z,300
2016-09-01T12:44:06.561Z,235
2016-09-01T12:45:06.549Z,320
2016-09-01T12:46:07.308Z,250
2016-09-01T12:47:05.814Z,215
2016-09-01T12:48:05.822Z,190
2016-09-01T12:49:06.544Z,170
2016-09-01T12:50:06.528Z,165
2016-09-01T12:51:06.548Z,150
2016-09-01T12:52:07.286Z,140
2016-09-01T12:53:05.858Z,130
2016-09-01T12:54:07.197Z,125
2016-09-01T12:55:05.062Z,120
2016-09-01T12:56:07.197Z,120
2016-09-01T12:57:06.472Z,125
2016-09-01T12:58:05.756Z,120
2016-09-01T12:59:06.469Z,125
2016-09-01T13:00:05.757Z,125
2016-09-01T13:01:07.162Z,125
2016-09-01T13:02:05.721Z,140
2016-09-01T13:03:07.151Z,160
2016-09-01T13:04:06.449Z,180
2016-09-01T13:05:07.150Z,180
2016-09-01T13:06:06.469Z,185
2016-09-01T13:07:05.696Z,230
2016-09-01T13:08:07.138Z,265
2016-09-01T13:09:06.419Z,310
2016-09-01T13:10:04.958Z,235
2016-09-01T13:11:06.394Z,215
2016-09-01T13:12:06.411Z,200
2016-09-01T13:13:07.112Z,215
2016-09-01T13:14:05.671Z,205
2016-09-01T13:15:06.369Z,195
2016-09-01T13:16:07.060Z,195
2016-09-01T13:17:07.078Z,195
2016-09-01T13:18:05.671Z,210
2016-09-01T13:19:06.398Z,175
2016-09-01T13:20:04.904Z,175
2016-09-01T13:21:06.353Z,180
2016-09-01T13:22:05.616Z,185
2016-09-01T13:23:06.315Z,270
2016-09-01T13:24:05.604Z,230
2016-09-01T13:25:07.038Z,225
2016-09-01T13:26:07.009Z,310
2016-09-01T13:27:07.008Z,250
2016-09-01T13:28:05.567Z,245
2016-09-01T13:29:05.567Z,215
2016-09-01T13:30:07.904Z,215
2016-09-01T13:31:06.997Z,195
2016-09-01T13:32:06.268Z,190
2016-09-01T13:33:06.249Z,185
2016-09-01T13:34:06.244Z,195
2016-09-01T13:35:07.189Z,280
2016-09-01T13:36:05.521Z,260
2016-09-01T13:37:04.810Z,215
2016-09-01T13:38:06.931Z,250
2016-09-01T13:39:06.223Z,295
2016-09-01T13:40:06.191Z,220
2016-09-01T13:41:04.779Z,195
2016-09-01T13:42:06.231Z,210
2016-09-01T13:43:06.207Z,270
2016-09-01T13:44:04.745Z,215
2016-09-01T13:45:06.182Z,245
2016-09-01T13:46:05.479Z,260
2016-09-01T13:47:06.180Z,285
2016-09-01T13:48:06.181Z,290
2016-09-01T13:49:05.517Z,280
2016-09-01T13:50:06.193Z,260
2016-09-01T13:51:05.431Z,255
2016-09-01T13:52:05.429Z,230
2016-09-01T13:53:06.129Z,245
2016-09-01T13:54:06.848Z,235
2016-09-01T13:55:05.396Z,160
2016-09-01T13:56:06.128Z,140
2016-09-01T13:57:06.828Z,125
2016-09-01T13:58:06.828Z,120
2016-09-01T13:59:05.388Z,110
2016-09-01T14:00:06.099Z,100
2016-09-01T14:01:06.126Z,95
2016-09-01T14:02:04.722Z,90
2016-09-01T14:03:06.797Z,90
2016-09-01T14:04:05.361Z,85